Time;durP1;ratioP1;P1;durP2;ratioP2;P2;SDS_P1;SDS_P2;PMS_P1;PMS_P2;Temp;Humidity;BMP_temperature;BMP_pressure;BME280_temperature;BME280_humidity;BME280_pressure;Samples;Min_cycle;Max_cycle;Signal;HPM_P1;HPM_P2
2022/12/15 00:44:06;;;;;;;13.80;2.70;;;;;;;14.76;nan;99972.06;6128815;23;20457;-96
2022/12/15 00:46:53;;;;;;;17.67;3.13;;;;;;;14.78;nan;99986.44;6083265;23;20414;-96
2022/12/15 01:20:19;;;;;;;14.80;3.10;;;;;;;14.70;nan;99973.84;6058375;23;20809;-95
2022/12/15 01:22:51;;;;;;;16.13;3.30;;;;;;;14.71;nan;100025.03;6026953;23;20415;-95
2022/12/15 01:26:12;;;;;;;7.13;1.47;;;;;;;14.71;nan;100021.47;6026417;23;20514;-96
2022/12/15 01:28:54;;;;;;;10.77;1.57;;;;;;;14.55;nan;100003.75;6096962;23;20419;-96
2022/12/15 01:31:33;;;;;;;10.53;1.63;;;;;;;14.51;nan;99997.88;6073322;23;20847;-96
2022/12/15 01:34:20;;;;;;;8.43;1.67;;;;;;;14.44;nan;99980.66;6073103;23;20421;-96
2022/12/15 01:41:03;;;;;;;19.53;2.27;;;;;;;14.33;nan;99962.22;6112623;23;20468;-95
2022/12/15 01:51:43;;;;;;;;;;;;;;;;;;;;;
2022/12/15 02:27:24;;;;;;;;;;;;;;;;;;;;;
2022/12/15 02:50:00;;;;;;;13.80;1.83;;;;;;;14.09;nan;99977.00;6066185;23;20561;-95
2022/12/15 02:56:51;;;;;;;13.90;2.90;;;;;;;14.07;nan;100001.13;5982233;24;20394;-96
2022/12/15 03:00:06;;;;;;;17.20;3.30;;;;;;;14.08;nan;99991.81;5981034;24;20457;-96
2022/12/15 03:32:21;;;;;;;8.67;2.13;;;;;;;14.03;100.00;99977.94;6317750;22;20402;-94
2022/12/15 03:46:33;;;;;;;13.23;2.00;;;;;;;13.78;100.00;99956.97;6223427;22;20398;-96
2022/12/15 04:11:51;;;;;;;12.47;1.53;;;;;;;13.53;100.00;99945.31;6080776;23;20404;-93
2022/12/15 04:14:45;;;;;;;10.20;1.47;;;;;;;13.57;100.00;99967.63;6176067;23;20413;-94
2022/12/15 04:21:02;;;;;;;13.87;2.77;;;;;;;13.34;100.00;99940.91;6317256;22;20426;-95
2022/12/15 05:45:33;;;;;;;19.83;3.33;;;;;;;13.35;100.00;99918.72;6155534;23;20424;-93
2022/12/15 05:52:06;;;;;;;22.67;5.20;;;;;;;13.35;100.00;99920.63;5927186;24;20447;-95
2022/12/15 05:55:19;;;;;;;20.70;4.73;;;;;;;13.37;100.00;99934.97;5948043;24;20500;-93
2022/12/15 06:17:19;;;;;;;19.80;3.23;;;;;;;13.72;100.00;99951.56;6125477;23;20460;-93
2022/12/15 06:20:15;;;;;;;24.93;4.77;;;;;;;13.64;100.00;99930.78;6105820;23;20419;-95
2022/12/15 06:26:34;;;;;;;23.97;4.10;;;;;;;13.68;100.00;99953.09;6275886;22;20373;-95
2022/12/15 06:32:45;;;;;;;25.83;4.27;;;;;;;13.59;100.00;99949.03;6173850;23;20472;-92
2022/12/15 06:35:43;;;;;;;23.80;3.70;;;;;;;13.67;100.00;99995.38;6136997;23;20439;-94
2022/12/15 06:38:30;;;;;;;25.63;4.40;;;;;;;13.69;100.00;99995.97;6135675;23;20412;-93
2022/12/15 06:44:47;;;;;;;12.77;1.60;;;;;;;13.66;100.00;100002.75;6184422;23;20411;-94
2022/12/15 06:47:18;;;;;;;13.33;1.93;;;;;;;13.53;100.00;100011.19;6136360;23;20443;-94
2022/12/15 06:50:14;;;;;;;7.27;1.00;;;;;;;13.61;100.00;100004.56;6111454;23;20412;-95
2022/12/15 06:53:11;;;;;;;5.53;0.97;;;;;;;13.55;100.00;99987.09;6159879;23;20416;-94
2022/12/15 07:02:50;;;;;;;14.10;1.40;;;;;;;13.42;100.00;99966.16;6185184;23;20415;-93
2022/12/15 07:05:43;;;;;;;7.50;1.60;;;;;;;13.51;100.00;99985.88;6135716;23;20490;-93
2022/12/15 07:17:05;;;;;;;12.93;2.40;;;;;;;13.39;100.00;99998.72;6070201;23;20437;-94
2022/12/15 07:39:11;;;;;;;24.87;3.40;;;;;;;13.32;100.00;99992.47;6066916;23;20420;-94
2022/12/15 07:46:04;;;;;;;24.50;3.00;;;;;;;13.52;100.00;100014.16;6133399;23;20718;-93
2022/12/15 07:52:20;;;;;;;17.87;1.93;;;;;;;13.49;100.00;99988.00;6277663;22;20892;-95
2022/12/15 07:58:28;;;;;;;11.30;1.27;;;;;;;13.39;100.00;99994.06;6277564;22;20901;-95
2022/12/15 08:04:57;;;;;;;22.10;2.10;;;;;;;13.35;100.00;99992.84;6279485;22;20380;-94
2022/12/15 08:19:51;;;;;;;8.30;1.50;;;;;;;13.37;100.00;100018.16;6215776;22;20390;-95
2022/12/15 08:38:41;;;;;;;14.63;2.80;;;;;;;13.63;100.00;100076.56;6218542;22;20383;-94
2022/12/15 08:41:42;;;;;;;;;;;;;;;;;;;;;
2022/12/15 08:45:25;;;;;;;4.10;0.90;;;;;;;13.96;100.00;100073.38;6096838;23;20414;-96
2022/12/15 08:48:09;;;;;;;5.73;1.47;;;;;;;13.85;100.00;100057.69;6069388;23;20400;-96
2022/12/15 09:14:35;;;;;;;10.80;1.70;;;;;;;13.79;100.00;100092.41;6096772;23;20467;-93
2022/12/15 09:17:15;;;;;;;8.63;1.30;;;;;;;13.76;100.00;100093.69;6069303;23;20453;-92
2022/12/15 09:20:08;;;;;;;11.30;2.00;;;;;;;13.77;100.00;100109.09;6093844;23;20445;-92
2022/12/15 09:27:10;;;;;;;16.33;2.27;;;;;;;13.75;100.00;100099.41;6047715;23;20402;-94
2022/12/15 09:29:38;;;;;;;12.40;2.10;;;;;;;13.79;100.00;100109.72;6071197;23;20414;-90
2022/12/15 09:32:06;;;;;;;11.53;2.63;;;;;;;13.82;100.00;100113.91;6095647;23;20556;-90
2022/12/15 09:34:42;;;;;;;12.13;4.20;;;;;;;13.77;100.00;100111.84;6096098;23;20394;-90
2022/12/15 09:37:10;;;;;;;23.40;4.90;;;;;;;13.83;100.00;100116.44;6072624;23;21017;-90
2022/12/15 09:39:38;;;;;;;17.53;4.97;;;;;;;13.85;100.00;100124.44;6072264;23;20496;-90
2022/12/15 09:42:15;;;;;;;18.73;5.60;;;;;;;13.87;100.00;100126.94;6071590;23;20470;-90
2022/12/15 09:44:43;;;;;;;17.10;7.70;;;;;;;13.87;100.00;100129.69;6048130;23;20402;-90
2022/12/15 09:47:18;;;;;;;12.50;4.70;;;;;;;13.89;100.00;100130.28;6110260;22;20404;-90
2022/12/15 09:49:56;;;;;;;10.77;3.00;;;;;;;13.89;100.00;100125.63;6226158;22;20751;-90
2022/12/15 09:52:25;;;;;;;7.63;2.60;;;;;;;13.98;100.00;100134.41;6201320;22;20848;-90
2022/12/15 09:54:56;;;;;;;15.10;5.33;;;;;;;14.07;100.00;100138.50;6226010;22;20488;-90
2022/12/15 09:57:32;;;;;;;14.60;3.73;;;;;;;14.11;100.00;100128.75;6226251;22;20417;-90
2022/12/15 10:00:27;;;;;;;10.90;2.90;;;;;;;14.28;100.00;100146.25;6250563;22;20408;-90
2022/12/15 10:03:22;;;;;;;16.97;3.90;;;;;;;14.43;100.00;100132.13;6250544;22;20906;-89
2022/12/15 10:06:10;;;;;;;12.80;3.40;;;;;;;14.59;100.00;100136.13;6250889;22;20435;-89
2022/12/15 10:09:17;;;;;;;24.23;6.77;;;;;;;14.72;100.00;100130.41;6227176;22;20413;-89
2022/12/15 10:11:51;;;;;;;26.40;10.03;;;;;;;14.88;100.00;100142.63;6200839;22;20981;-89
2022/12/15 10:14:45;;;;;;;20.90;5.47;;;;;;;14.94;100.00;100137.03;6224221;22;20417;-89
2022/12/15 10:17:26;;;;;;;28.93;4.40;;;;;;;15.00;100.00;100133.34;6204085;22;20422;-89
2022/12/15 10:20:08;;;;;;;25.07;5.03;;;;;;;15.14;100.00;100153.22;6275913;22;20443;-88
2022/12/15 10:22:36;;;;;;;20.20;3.30;;;;;;;15.18;100.00;100147.00;6251611;22;20398;-87
2022/12/15 10:25:28;;;;;;;25.20;5.63;;;;;;;15.29;100.00;100144.47;6225072;22;20393;-87
2022/12/15 10:28:07;;;;;;;27.23;5.70;;;;;;;15.41;100.00;100146.13;6225408;22;20785;-87
2022/12/15 10:31:03;;;;;;;20.90;3.97;;;;;;;15.48;100.00;100152.38;6249737;22;20933;-87
2022/12/15 10:33:47;;;;;;;24.77;3.77;;;;;;;15.58;100.00;100146.28;6271403;22;20939;-94
2022/12/15 10:36:29;;;;;;;15.97;3.50;;;;;;;15.63;100.00;100138.13;6226951;22;20433;-95
2022/12/15 10:39:37;;;;;;;20.80;4.63;;;;;;;15.76;100.00;100129.63;6228059;22;20409;-95
2022/12/15 10:42:38;;;;;;;23.27;3.77;;;;;;;15.94;100.00;100125.00;6235406;22;20440;-94
2022/12/15 10:45:51;;;;;;;17.63;3.03;;;;;;;16.32;100.00;100150.03;6275844;22;20394;-94
2022/12/15 10:48:24;;;;;;;23.17;3.70;;;;;;;16.46;100.00;100132.09;6251879;22;20883;-94
2022/12/15 10:51:29;;;;;;;19.30;3.67;;;;;;;16.74;100.00;100130.44;6230741;22;20487;-90
2022/12/15 10:54:32;;;;;;;19.87;3.27;;;;;;;16.96;100.00;100136.03;6276959;22;20429;-91
2022/12/15 10:57:26;;;;;;;13.80;2.80;;;;;;;17.12;100.00;100138.81;6251113;22;20437;-91
2022/12/15 11:00:21;;;;;;;15.30;2.70;;;;;;;17.20;100.00;100138.38;6276670;22;20405;-93
2022/12/15 11:45:54;;;;;;;12.73;2.43;;;;;;;16.29;100.00;100142.25;6309206;22;20735;-89
2022/12/15 11:48:51;;;;;;;10.73;2.10;;;;;;;16.31;100.00;100142.03;6282844;22;20365;-90
2022/12/15 11:51:35;;;;;;;6.33;1.30;;;;;;;16.27;100.00;100138.06;6309512;22;20698;-90
2022/12/15 11:54:33;;;;;;;9.90;2.07;;;;;;;16.22;100.00;100131.38;6257698;22;20404;-90
2022/12/15 11:57:19;;;;;;;16.43;3.07;;;;;;;16.23;100.00;100126.69;6263840;22;20440;-90
2022/12/15 12:03:10;;;;;;;12.47;1.57;;;;;;;16.57;100.00;100114.63;6309382;22;20403;-90
2022/12/15 12:05:50;;;;;;;7.50;1.70;;;;;;;16.67;100.00;100107.69;6258102;22;20467;-90
2022/12/15 12:08:34;;;;;;;9.77;2.20;;;;;;;16.92;100.00;100121.91;6257143;22;20380;-90
2022/12/15 12:11:16;;;;;;;5.93;1.60;;;;;;;17.06;100.00;100120.47;6309853;22;20462;-90
2022/12/15 12:14:13;;;;;;;6.73;1.67;;;;;;;17.13;100.00;100106.47;6257913;22;20406;-90
2022/12/15 12:17:10;;;;;;;9.17;2.47;;;;;;;17.29;100.00;100113.09;6255412;22;20440;-90
2022/12/15 12:20:03;;;;;;;6.27;1.57;;;;;;;17.33;100.00;100109.56;6283436;22;20377;-90
2022/12/15 12:23:05;;;;;;;7.93;1.60;;;;;;;17.47;100.00;100112.81;6260816;22;20393;-90
2022/12/15 12:26:14;;;;;;;11.73;1.80;;;;;;;17.45;99.33;100112.22;6281251;22;20400;-90
2022/12/15 12:29:19;;;;;;;8.83;2.00;;;;;;;17.41;98.48;100094.47;6257630;22;20408;-90
2022/12/15 12:32:14;;;;;;;8.97;1.80;;;;;;;17.61;98.68;100111.34;6282364;22;20952;-89
2022/12/15 12:35:02;;;;;;;12.90;1.80;;;;;;;17.67;98.36;100113.13;6260022;22;20525;-90
2022/12/15 12:38:00;;;;;;;13.17;2.30;;;;;;;17.70;97.31;100118.16;6265897;22;20467;-94
2022/12/15 12:40:39;;;;;;;13.13;2.13;;;;;;;17.74;97.45;100105.47;6260340;22;20432;-89
2022/12/15 12:43:37;;;;;;;16.03;2.87;;;;;;;17.79;97.37;100100.00;6282706;22;20376;-89
2022/12/15 12:46:15;;;;;;;16.67;4.00;;;;;;;17.81;96.85;100111.66;6251400;22;20490;-90
2022/12/15 12:49:22;;;;;;;19.83;4.00;;;;;;;17.84;97.42;100111.13;6233141;22;20381;-90
2022/12/15 12:52:02;;;;;;;13.53;2.83;;;;;;;17.88;96.75;100106.78;6283051;22;20372;-91
2022/12/15 12:54:43;;;;;;;9.63;2.77;;;;;;;17.94;96.44;100100.19;6232531;22;20494;-90
2022/12/15 12:57:13;;;;;;;27.03;6.10;;;;;;;18.03;95.71;100106.13;6232587;22;20435;-90
2022/12/15 13:00:03;;;;;;;24.27;3.97;;;;;;;18.08;94.99;100102.59;6310134;22;20376;-90
2022/12/15 13:02:53;;;;;;;17.90;3.70;;;;;;;18.13;92.71;100097.09;6259491;22;20369;-90
2022/12/15 13:05:40;;;;;;;12.70;2.90;;;;;;;18.25;92.72;100111.63;6235522;22;20369;-90
2022/12/15 13:08:49;;;;;;;7.53;2.57;;;;;;;18.29;92.04;100107.22;6281865;22;20404;-91
2022/12/15 13:14:50;;;;;;;13.53;2.80;;;;;;;18.31;88.73;100093.97;6308492;22;20392;-91
2022/12/15 13:17:30;;;;;;;15.53;3.80;;;;;;;18.44;89.51;100087.19;6232660;22;20428;-90
2022/12/15 13:20:01;;;;;;;10.37;2.40;;;;;;;18.50;88.06;100095.25;6231945;22;20527;-91
2022/12/15 13:22:39;;;;;;;14.67;5.03;;;;;;;18.50;87.54;100103.56;6309383;22;20384;-92
2022/12/15 13:28:54;;;;;;;11.63;2.83;;;;;;;18.61;86.71;100087.94;6309387;22;20353;-91
2022/12/15 13:31:27;;;;;;;6.97;2.37;;;;;;;18.70;85.38;100096.59;6233278;22;20412;-91
2022/12/15 13:34:23;;;;;;;8.00;2.20;;;;;;;18.74;84.72;100106.88;6258230;22;20409;-90
2022/12/15 13:36:57;;;;;;;17.30;2.33;;;;;;;18.60;86.32;100091.81;6251136;22;20436;-91
2022/12/15 13:39:28;;;;;;;9.70;2.20;;;;;;;18.54;86.50;100107.50;6232819;22;20723;-91
2022/12/15 13:42:05;;;;;;;14.83;2.50;;;;;;;18.30;86.82;100131.03;6276203;22;20433;-91
2022/12/15 13:44:56;;;;;;;15.53;2.67;;;;;;;17.89;89.08;100147.16;6276705;22;20447;-91
2022/12/15 13:47:27;;;;;;;9.70;2.20;;;;;;;17.36;90.83;100139.44;6227485;22;20408;-91
2022/12/15 13:50:13;;;;;;;9.83;1.77;;;;;;;16.92;93.92;100142.06;6251857;22;20394;-91
2022/12/15 13:52:50;;;;;;;16.27;3.03;;;;;;;16.58;97.58;100160.47;6227726;22;20405;-91
2022/12/15 13:55:38;;;;;;;10.00;2.60;;;;;;;16.22;100.00;100142.41;6255717;22;20393;-91
2022/12/15 13:58:25;;;;;;;13.77;3.03;;;;;;;15.97;100.00;100132.78;6252002;22;20425;-91
2022/12/15 14:00:55;;;;;;;11.43;2.53;;;;;;;15.84;100.00;100131.13;6226118;22;20775;-91
2022/12/15 14:03:27;;;;;;;6.70;2.17;;;;;;;15.81;100.00;100124.19;6226478;22;20452;-91
2022/12/15 14:05:58;;;;;;;16.47;2.10;;;;;;;15.83;100.00;100127.53;6251541;22;20743;-91
2022/12/15 14:08:28;;;;;;;14.90;2.43;;;;;;;16.02;100.00;100121.84;6226474;22;20408;-92
2022/12/15 14:10:59;;;;;;;17.47;2.50;;;;;;;16.24;100.00;100115.41;6226545;22;20401;-92
2022/12/15 14:13:43;;;;;;;11.37;2.60;;;;;;;16.56;100.00;100129.53;6233568;22;20377;-91
2022/12/15 14:16:20;;;;;;;23.80;9.33;;;;;;;16.65;100.00;100118.97;6252525;22;20419;-92
2022/12/15 14:19:18;;;;;;;21.23;3.50;;;;;;;16.74;100.00;100127.69;6226706;22;20740;-92
2022/12/15 14:22:26;;;;;;;14.10;2.00;;;;;;;16.70;100.00;100105.25;6275584;22;20413;-92
2022/12/15 14:25:24;;;;;;;15.50;2.57;;;;;;;16.80;100.00;100110.94;6255771;22;20428;-92
2022/12/15 14:28:21;;;;;;;10.83;2.77;;;;;;;16.82;100.00;100121.72;6228114;22;20376;-92
2022/12/15 14:31:08;;;;;;;15.90;1.90;;;;;;;16.67;100.00;100116.78;6252104;22;20405;-93
2022/12/15 14:33:41;;;;;;;13.60;2.50;;;;;;;16.60;100.00;100110.56;6276828;22;20405;-92
2022/12/15 14:36:11;;;;;;;14.20;4.03;;;;;;;16.62;100.00;100097.34;6252590;22;20442;-93
2022/12/15 14:38:49;;;;;;;10.90;3.17;;;;;;;16.83;100.00;100109.59;6251522;22;20652;-93
2022/12/15 14:41:33;;;;;;;14.80;3.20;;;;;;;16.87;100.00;100100.56;6227263;22;20433;-93
2022/12/15 14:44:10;;;;;;;16.87;2.60;;;;;;;17.07;100.00;100102.00;6229294;22;20432;-92
2022/12/15 14:47:46;;;;;;;16.03;3.60;;;;;;;17.26;100.00;100112.50;6257664;22;20389;-92
2022/12/15 14:50:35;;;;;;;11.30;3.10;;;;;;;17.23;100.00;100103.91;6284833;22;20404;-91
2022/12/15 14:53:28;;;;;;;13.13;1.93;;;;;;;17.25;100.00;100105.31;6267757;22;20432;-92
2022/12/15 14:56:21;;;;;;;18.87;4.17;;;;;;;17.38;100.00;100123.44;6288073;22;20727;-92
2022/12/15 15:03:11;;;;;;;14.60;2.70;;;;;;;17.36;99.96;100103.53;6278657;22;20380;-92
2022/12/15 15:05:48;;;;;;;16.13;3.70;;;;;;;17.41;98.98;100113.81;6257635;22;20404;-92
2022/12/15 15:08:45;;;;;;;15.33;2.63;;;;;;;17.47;97.94;100121.94;6277813;22;20378;-92
2022/12/15 15:11:34;;;;;;;13.10;3.10;;;;;;;17.53;97.67;100120.06;6253309;22;20409;-92
2022/12/15 15:14:24;;;;;;;9.70;2.30;;;;;;;17.57;97.02;100124.00;6228136;22;20783;-92
2022/12/15 15:17:27;;;;;;;12.93;3.30;;;;;;;17.47;96.94;100116.41;6252111;22;20491;-92
2022/12/15 15:19:59;;;;;;;11.67;2.60;;;;;;;17.52;96.10;100127.50;6255876;22;20415;-91
2022/12/15 15:23:07;;;;;;;13.03;2.23;;;;;;;17.58;96.93;100133.97;6226810;22;20467;-93
2022/12/15 15:25:36;;;;;;;5.87;2.07;;;;;;;17.47;96.63;100110.88;6277050;22;20405;-92
2022/12/15 15:28:27;;;;;;;11.53;2.60;;;;;;;17.45;96.57;100120.53;6227252;22;20409;-92
2022/12/15 15:31:22;;;;;;;16.53;2.83;;;;;;;17.46;96.11;100120.28;6228084;22;20405;-93
2022/12/15 15:34:01;;;;;;;12.50;2.00;;;;;;;17.40;95.98;100117.66;6254845;22;20396;-92
2022/12/15 15:36:35;;;;;;;14.17;2.83;;;;;;;17.41;96.21;100125.72;6253380;22;20488;-92
2022/12/15 15:39:39;;;;;;;12.60;2.27;;;;;;;17.47;97.07;100121.94;6225820;22;20409;-92
2022/12/15 15:42:11;;;;;;;23.90;3.03;;;;;;;17.48;97.78;100129.13;6160616;23;20446;-93
2022/12/15 15:44:52;;;;;;;11.53;3.40;;;;;;;17.52;97.73;100135.81;6139287;23;20427;-92
2022/12/15 15:47:51;;;;;;;12.00;1.87;;;;;;;17.57;96.63;100173.75;6134339;23;20404;-92
2022/12/15 15:50:26;;;;;;;10.93;2.10;;;;;;;17.31;96.60;100177.22;6070730;23;20711;-91
2022/12/15 15:52:54;;;;;;;9.87;1.87;;;;;;;16.94;99.05;100150.09;6070851;23;20485;-92
2022/12/15 15:55:28;;;;;;;9.00;2.07;;;;;;;16.72;100.00;100168.47;6072292;23;20417;-93
2022/12/15 15:58:26;;;;;;;12.90;2.90;;;;;;;16.63;100.00;100165.28;6050167;23;20434;-93
2022/12/15 16:01:04;;;;;;;14.40;2.60;;;;;;;16.45;100.00;100162.69;6114309;23;20404;-92
2022/12/15 16:03:44;;;;;;;13.20;3.20;;;;;;;16.30;100.00;100154.13;6137648;23;20487;-91
2022/12/15 16:06:20;;;;;;;14.17;2.87;;;;;;;16.17;100.00;100149.72;6110660;23;20507;-93
2022/12/15 16:08:50;;;;;;;12.00;3.00;;;;;;;16.25;100.00;100157.63;6160164;23;20403;-93
2022/12/15 16:11:49;;;;;;;12.47;2.10;;;;;;;16.38;100.00;100165.59;6111502;23;20496;-93
2022/12/15 16:14:27;;;;;;;10.33;2.03;;;;;;;16.45;100.00;100179.25;6135798;23;20458;-93
2022/12/15 16:16:58;;;;;;;7.83;2.27;;;;;;;16.42;100.00;100172.28;6134929;23;20411;-93
2022/12/15 16:19:42;;;;;;;8.67;3.13;;;;;;;16.54;100.00;100177.78;6181323;22;20405;-93
2022/12/15 16:22:20;;;;;;;18.87;2.10;;;;;;;16.61;100.00;100172.94;6249855;22;20405;-92
2022/12/15 16:25:11;;;;;;;10.00;1.77;;;;;;;16.61;100.00;100177.59;6227930;22;20411;-93
2022/12/15 16:28:22;;;;;;;5.83;1.63;;;;;;;16.49;100.00;100181.28;6251971;22;20404;-95
2022/12/15 16:31:28;;;;;;;8.53;1.60;;;;;;;16.36;100.00;100176.03;6277093;22;20405;-94
2022/12/15 16:34:26;;;;;;;12.93;2.33;;;;;;;16.25;100.00;100176.91;6277832;22;20404;-95
2022/12/15 16:40:28;;;;;;;10.60;2.17;;;;;;;15.95;100.00;100171.63;6279035;22;20488;-95
2022/12/15 16:46:56;;;;;;;10.77;2.17;;;;;;;15.75;100.00;100182.22;6278769;22;20433;-95
2022/12/15 16:49:33;;;;;;;9.50;1.77;;;;;;;15.67;100.00;100194.41;6202964;22;21010;-95
2022/12/15 16:52:14;;;;;;;6.53;1.70;;;;;;;15.47;100.00;100175.47;6230007;22;20381;-94
2022/12/15 16:54:47;;;;;;;17.93;2.30;;;;;;;15.48;100.00;100196.44;6202738;22;20404;-94
2022/12/15 16:57:33;;;;;;;13.13;2.27;;;;;;;15.37;100.00;100189.03;6252001;22;20436;-95
2022/12/15 17:00:20;;;;;;;15.80;4.97;;;;;;;15.28;100.00;100190.44;6203981;22;20405;-94
2022/12/15 17:02:50;;;;;;;12.30;4.30;;;;;;;15.34;100.00;100206.00;6228832;22;20366;-92
2022/12/15 17:05:20;;;;;;;12.03;3.20;;;;;;;15.24;100.00;100180.97;6202491;22;20378;-93
2022/12/15 17:07:55;;;;;;;16.50;3.43;;;;;;;15.30;100.00;100187.44;6228148;22;20402;-93
2022/12/15 17:10:25;;;;;;;13.03;3.47;;;;;;;15.33;100.00;100195.22;6227891;22;20404;-92
2022/12/15 17:13:05;;;;;;;12.27;3.23;;;;;;;15.26;100.00;100194.50;6202893;22;20440;-92
2022/12/15 17:15:38;;;;;;;10.50;3.50;;;;;;;15.20;100.00;100194.38;6202128;22;20463;-92
2022/12/15 17:18:10;;;;;;;14.37;2.63;;;;;;;15.17;100.00;100205.88;6251729;22;20767;-93
2022/12/15 17:20:38;;;;;;;14.27;4.27;;;;;;;15.01;100.00;100195.53;6227194;22;20410;-93
2022/12/15 17:23:18;;;;;;;14.10;4.07;;;;;;;15.02;100.00;100205.47;6202449;22;20851;-92
2022/12/15 17:25:50;;;;;;;15.50;5.10;;;;;;;14.89;100.00;100197.44;6204881;22;20405;-92
2022/12/15 17:28:39;;;;;;;14.67;4.50;;;;;;;14.83;100.00;100199.19;6214641;22;20420;-93
2022/12/15 17:31:25;;;;;;;21.23;3.47;;;;;;;14.84;100.00;100222.06;6202663;22;20405;-94
2022/12/15 17:34:30;;;;;;;11.80;3.20;;;;;;;14.76;100.00;100215.00;6231661;22;20381;-92
2022/12/15 17:37:01;;;;;;;20.60;3.37;;;;;;;14.67;100.00;100216.38;6226703;22;20397;-93
2022/12/15 17:39:35;;;;;;;14.47;3.67;;;;;;;14.55;100.00;100204.50;6227056;22;20405;-92
2022/12/15 17:42:04;;;;;;;16.70;4.73;;;;;;;14.54;100.00;100210.25;6215300;22;20417;-92
2022/12/15 17:44:35;;;;;;;19.63;4.10;;;;;;;14.48;100.00;100218.34;6226686;22;20405;-92
2022/12/15 17:47:07;;;;;;;17.97;5.27;;;;;;;14.40;100.00;100204.06;6227645;22;20954;-92
2022/12/15 17:49:46;;;;;;;13.53;4.67;;;;;;;14.50;100.00;100224.44;6227668;22;20781;-93
2022/12/15 17:52:18;;;;;;;13.33;3.70;;;;;;;14.43;100.00;100233.88;6251547;22;20405;-92
2022/12/15 17:54:50;;;;;;;18.80;3.10;;;;;;;14.31;100.00;100233.75;6251582;22;20429;-92
2022/12/15 17:57:20;;;;;;;14.93;3.30;;;;;;;14.29;100.00;100237.81;6252157;22;20903;-92
2022/12/15 17:59:48;;;;;;;12.67;2.60;;;;;;;14.19;100.00;100227.38;6251391;22;20405;-92
2022/12/15 18:02:24;;;;;;;16.83;3.90;;;;;;;14.03;100.00;100217.00;6226796;22;20366;-92
2022/12/15 18:04:56;;;;;;;12.73;2.17;;;;;;;14.08;100.00;100241.88;6226345;22;20421;-92
2022/12/15 18:07:58;;;;;;;9.40;2.60;;;;;;;13.96;100.00;100241.78;6252169;22;20389;-93
2022/12/15 18:10:52;;;;;;;11.20;3.10;;;;;;;13.85;100.00;100256.31;6250837;22;20405;-94
2022/12/15 18:13:44;;;;;;;18.10;6.73;;;;;;;13.74;100.00;100249.63;6251297;22;20879;-94
2022/12/15 18:20:10;;;;;;;26.10;9.90;;;;;;;13.59;100.00;100251.91;6278241;22;20403;-95
2022/12/15 18:22:47;;;;;;;16.60;5.50;;;;;;;13.53;100.00;100247.31;6251847;22;20409;-93
2022/12/15 18:36:24;;;;;;;33.00;14.37;;;;;;;13.26;100.00;100268.66;6277988;22;20843;-93
2022/12/15 18:38:52;;;;;;;173.57;96.87;;;;;;;13.15;100.00;100261.13;6226466;22;20433;-93
2022/12/15 18:41:20;;;;;;;35.23;17.40;;;;;;;13.10;100.00;100267.25;6230630;22;20425;-92
2022/12/15 18:43:57;;;;;;;27.53;18.80;;;;;;;13.05;100.00;100267.09;6231275;22;20397;-92
2022/12/15 18:46:29;;;;;;;55.20;34.77;;;;;;;13.05;100.00;100261.63;6256805;22;20391;-92
2022/12/15 18:49:04;;;;;;;37.03;23.57;;;;;;;13.06;100.00;100256.97;6232340;22;20973;-92
2022/12/15 18:51:35;;;;;;;26.60;12.40;;;;;;;13.04;100.00;100253.59;6232293;22;20734;-92
2022/12/15 18:54:04;;;;;;;36.23;13.47;;;;;;;13.07;100.00;100262.22;6256843;22;20377;-93
2022/12/15 18:56:44;;;;;;;30.27;15.20;;;;;;;13.22;100.00;100281.16;6231711;22;20404;-92
2022/12/15 19:03:40;;;;;;;66.03;53.57;;;;;;;13.18;100.00;100281.81;6308776;22;20398;-93
2022/12/15 19:06:37;;;;;;;30.17;23.50;;;;;;;13.18;100.00;100298.28;6281567;22;20404;-95
2022/12/15 19:09:19;;;;;;;35.90;23.70;;;;;;;13.11;100.00;100288.13;6257866;22;20411;-95
2022/12/15 19:14:51;;;;;;;22.37;11.27;;;;;;;13.12;100.00;100289.81;6265063;22;20453;-94
2022/12/15 19:23:20;;;;;;;25.90;11.43;;;;;;;13.03;100.00;100296.66;6265466;22;20408;-93
2022/12/15 19:25:48;;;;;;;18.47;7.90;;;;;;;12.88;100.00;100284.31;6255819;22;20909;-95
2022/12/15 19:32:07;;;;;;;25.30;13.53;;;;;;;12.82;100.00;100293.41;6308395;22;20355;-95
2022/12/15 19:35:53;;;;;;;;;;;;;;;;;;;;;
2022/12/15 20:12:38;;;;;;;7.50;2.37;;;;;;;12.50;100.00;100300.75;6310434;22;20396;-96
2022/12/15 20:19:14;;;;;;;13.23;4.87;;;;;;;12.66;100.00;100322.19;6310116;22;20893;-93
2022/12/15 20:33:52;;;;;;;21.73;8.43;;;;;;;12.78;100.00;100315.78;6310009;22;20409;-95
2022/12/15 20:36:43;;;;;;;33.73;12.23;;;;;;;12.80;100.00;100329.28;6285845;22;20399;-93
2022/12/15 20:39:34;;;;;;;19.70;9.00;;;;;;;12.73;100.00;100320.22;6260983;22;20435;-92
2022/12/15 20:42:23;;;;;;;21.17;9.30;;;;;;;12.84;100.00;100329.69;6260304;22;20416;-93
2022/12/15 20:45:16;;;;;;;31.33;14.90;;;;;;;12.87;100.00;100316.38;6237849;22;20404;-92
2022/12/15 20:48:25;;;;;;;40.00;19.07;;;;;;;12.89;100.00;100318.91;6272144;22;20392;-93
2022/12/15 20:51:29;;;;;;;46.40;21.00;;;;;;;12.94;100.00;100319.91;6238555;22;20408;-93
2022/12/15 20:54:24;;;;;;;32.87;14.53;;;;;;;12.87;100.00;100304.56;6261128;22;20443;-93
2022/12/15 21:05:23;;;;;;;27.73;13.60;;;;;;;13.05;100.00;100327.47;6309863;22;20348;-95
2022/12/15 21:07:55;;;;;;;24.50;8.50;;;;;;;13.07;100.00;100325.34;6281718;22;20404;-95
